sensor_id;sensor_type;location;lat;lon;timestamp;P1;durP1;ratioP1;P2;durP2;ratioP2
19782;SDS011;10051;40.294;-3.754;2022-08-23T00:01:43;0.95;;;0.50;;
19782;SDS011;10051;40.294;-3.754;2022-08-23T00:04:20;0.50;;;0.40;;
19782;SDS011;10051;40.294;-3.754;2022-08-23T00:06:58;1.00;;;0.50;;
19782;SDS011;10051;40.294;-3.754;2022-08-23T00:09:25;2.33;;;0.50;;
19782;SDS011;10051;40.294;-3.754;2022-08-23T00:12:06;1.38;;;0.60;;
19782;SDS011;10051;40.294;-3.754;2022-08-23T00:14:47;0.75;;;0.32;;
19782;SDS011;10051;40.294;-3.754;2022-08-23T00:17:17;0.52;;;0.50;;
19782;SDS011;10051;40.294;-3.754;2022-08-23T00:19:43;2.90;;;0.50;;
19782;SDS011;10051;40.294;-3.754;2022-08-23T00:22:09;2.45;;;0.50;;
19782;SDS011;10051;40.294;-3.754;2022-08-23T00:24:37;0.93;;;0.40;;
19782;SDS011;10051;40.294;-3.754;2022-08-23T00:27:10;0.40;;;0.40;;
19782;SDS011;10051;40.294;-3.754;2022-08-23T00:29:41;0.40;;;0.40;;
19782;SDS011;10051;40.294;-3.754;2022-08-23T00:32:08;1.58;;;0.50;;
19782;SDS011;10051;40.294;-3.754;2022-08-23T00:34:36;2.13;;;0.60;;
19782;SDS011;10051;40.294;-3.754;2022-08-23T00:37:02;1.02;;;0.50;;
19782;SDS011;10051;40.294;-3.754;2022-08-23T00:39:29;0.30;;;0.30;;
19782;SDS011;10051;40.294;-3.754;2022-08-23T00:41:56;0.95;;;0.40;;
19782;SDS011;10051;40.294;-3.754;2022-08-23T00:44:48;1.05;;;0.50;;
19782;SDS011;10051;40.294;-3.754;2022-08-23T00:47:32;0.30;;;0.30;;
19782;SDS011;10051;40.294;-3.754;2022-08-23T00:50:25;2.35;;;0.50;;
19782;SDS011;10051;40.294;-3.754;2022-08-23T00:55:49;1.75;;;0.65;;
19782;SDS011;10051;40.294;-3.754;2022-08-23T00:58:19;2.97;;;0.40;;
19782;SDS011;10051;40.294;-3.754;2022-08-23T01:00:46;1.80;;;0.40;;
19782;SDS011;10051;40.294;-3.754;2022-08-23T01:03:14;1.15;;;0.40;;
19782;SDS011;10051;40.294;-3.754;2022-08-23T01:05:44;1.48;;;0.50;;
19782;SDS011;10051;40.294;-3.754;2022-08-23T01:08:18;1.27;;;0.50;;
19782;SDS011;10051;40.294;-3.754;2022-08-23T01:10:49;0.98;;;0.50;;
19782;SDS011;10051;40.294;-3.754;2022-08-23T01:13:20;0.95;;;0.45;;
19782;SDS011;10051;40.294;-3.754;2022-08-23T01:15:55;2.35;;;0.50;;
19782;SDS011;10051;40.294;-3.754;2022-08-23T01:18:25;1.67;;;0.50;;
19782;SDS011;10051;40.294;-3.754;2022-08-23T01:21:12;2.60;;;0.60;;
19782;SDS011;10051;40.294;-3.754;2022-08-23T01:23:48;1.98;;;0.63;;
19782;SDS011;10051;40.294;-3.754;2022-08-23T01:26:17;0.50;;;0.50;;
19782;SDS011;10051;40.294;-3.754;2022-08-23T01:28:44;2.13;;;0.50;;
19782;SDS011;10051;40.294;-3.754;2022-08-23T01:31:10;2.38;;;0.50;;
19782;SDS011;10051;40.294;-3.754;2022-08-23T01:33:38;1.98;;;0.63;;
19782;SDS011;10051;40.294;-3.754;2022-08-23T01:36:07;1.50;;;0.50;;
19782;SDS011;10051;40.294;-3.754;2022-08-23T01:38:35;0.60;;;0.50;;
19782;SDS011;10051;40.294;-3.754;2022-08-23T01:41:01;1.08;;;0.50;;
19782;SDS011;10051;40.294;-3.754;2022-08-23T01:43:26;1.27;;;0.60;;
19782;SDS011;10051;40.294;-3.754;2022-08-23T01:45:52;2.17;;;0.50;;
19782;SDS011;10051;40.294;-3.754;2022-08-23T01:48:18;1.42;;;0.45;;
19782;SDS011;10051;40.294;-3.754;2022-08-23T01:50:45;0.77;;;0.57;;
19782;SDS011;10051;40.294;-3.754;2022-08-23T01:53:11;1.73;;;0.50;;
19782;SDS011;10051;40.294;-3.754;2022-08-23T01:55:38;0.43;;;0.40;;
19782;SDS011;10051;40.294;-3.754;2022-08-23T01:58:06;2.20;;;0.60;;
19782;SDS011;10051;40.294;-3.754;2022-08-23T02:00:36;0.55;;;0.52;;
19782;SDS011;10051;40.294;-3.754;2022-08-23T02:03:04;0.75;;;0.50;;
19782;SDS011;10051;40.294;-3.754;2022-08-23T02:05:31;0.70;;;0.50;;
19782;SDS011;10051;40.294;-3.754;2022-08-23T02:08:01;0.50;;;0.50;;
19782;SDS011;10051;40.294;-3.754;2022-08-23T02:10:47;1.35;;;0.50;;
19782;SDS011;10051;40.294;-3.754;2022-08-23T02:13:13;0.98;;;0.45;;
19782;SDS011;10051;40.294;-3.754;2022-08-23T02:15:41;1.63;;;0.47;;
19782;SDS011;10051;40.294;-3.754;2022-08-23T02:18:11;0.50;;;0.50;;
19782;SDS011;10051;40.294;-3.754;2022-08-23T02:20:37;0.55;;;0.45;;
19782;SDS011;10051;40.294;-3.754;2022-08-23T02:23:11;0.30;;;0.30;;
19782;SDS011;10051;40.294;-3.754;2022-08-23T02:25:36;0.55;;;0.30;;
19782;SDS011;10051;40.294;-3.754;2022-08-23T02:28:03;1.55;;;0.40;;
19782;SDS011;10051;40.294;-3.754;2022-08-23T02:30:29;1.42;;;0.50;;
19782;SDS011;10051;40.294;-3.754;2022-08-23T02:32:55;0.43;;;0.43;;
19782;SDS011;10051;40.294;-3.754;2022-08-23T02:35:21;1.00;;;0.60;;
19782;SDS011;10051;40.294;-3.754;2022-08-23T02:37:47;0.70;;;0.40;;
19782;SDS011;10051;40.294;-3.754;2022-08-23T02:40:13;3.53;;;0.40;;
19782;SDS011;10051;40.294;-3.754;2022-08-23T02:42:38;1.83;;;0.50;;
19782;SDS011;10051;40.294;-3.754;2022-08-23T02:45:04;2.45;;;0.40;;
19782;SDS011;10051;40.294;-3.754;2022-08-23T02:47:33;0.73;;;0.43;;
19782;SDS011;10051;40.294;-3.754;2022-08-23T02:50:02;1.05;;;0.50;;
19782;SDS011;10051;40.294;-3.754;2022-08-23T02:52:29;0.80;;;0.40;;
19782;SDS011;10051;40.294;-3.754;2022-08-23T02:54:55;0.90;;;0.73;;
19782;SDS011;10051;40.294;-3.754;2022-08-23T02:57:20;2.38;;;0.50;;
19782;SDS011;10051;40.294;-3.754;2022-08-23T02:59:46;0.60;;;0.40;;
19782;SDS011;10051;40.294;-3.754;2022-08-23T03:02:11;2.40;;;0.40;;
19782;SDS011;10051;40.294;-3.754;2022-08-23T03:04:37;0.40;;;0.40;;
19782;SDS011;10051;40.294;-3.754;2022-08-23T03:07:03;0.60;;;0.32;;
19782;SDS011;10051;40.294;-3.754;2022-08-23T03:09:29;1.30;;;0.30;;
19782;SDS011;10051;40.294;-3.754;2022-08-23T03:11:54;2.47;;;0.40;;
19782;SDS011;10051;40.294;-3.754;2022-08-23T03:14:20;2.33;;;0.55;;
19782;SDS011;10051;40.294;-3.754;2022-08-23T03:16:46;1.10;;;0.43;;
19782;SDS011;10051;40.294;-3.754;2022-08-23T03:19:11;2.13;;;0.40;;
19782;SDS011;10051;40.294;-3.754;2022-08-23T03:21:37;0.50;;;0.50;;
19782;SDS011;10051;40.294;-3.754;2022-08-23T03:24:03;1.27;;;0.50;;
19782;SDS011;10051;40.294;-3.754;2022-08-23T03:26:29;2.70;;;0.50;;
19782;SDS011;10051;40.294;-3.754;2022-08-23T03:28:55;1.83;;;0.52;;
19782;SDS011;10051;40.294;-3.754;2022-08-23T03:31:21;1.65;;;0.60;;
19782;SDS011;10051;40.294;-3.754;2022-08-23T03:33:47;2.72;;;0.55;;
19782;SDS011;10051;40.294;-3.754;2022-08-23T03:36:12;2.10;;;0.73;;
19782;SDS011;10051;40.294;-3.754;2022-08-23T03:38:39;0.95;;;0.63;;
19782;SDS011;10051;40.294;-3.754;2022-08-23T03:41:06;1.45;;;0.50;;
19782;SDS011;10051;40.294;-3.754;2022-08-23T03:43:32;1.73;;;0.50;;
19782;SDS011;10051;40.294;-3.754;2022-08-23T03:45:57;0.40;;;0.40;;
19782;SDS011;10051;40.294;-3.754;2022-08-23T03:48:23;1.95;;;0.40;;
19782;SDS011;10051;40.294;-3.754;2022-08-23T03:50:49;1.13;;;0.60;;
19782;SDS011;10051;40.294;-3.754;2022-08-23T03:53:14;1.88;;;0.50;;
19782;SDS011;10051;40.294;-3.754;2022-08-23T03:55:40;0.80;;;0.50;;
19782;SDS011;10051;40.294;-3.754;2022-08-23T03:58:06;1.63;;;0.40;;
19782;SDS011;10051;40.294;-3.754;2022-08-23T04:00:32;3.80;;;0.50;;
19782;SDS011;10051;40.294;-3.754;2022-08-23T04:02:58;1.25;;;0.50;;
19782;SDS011;10051;40.294;-3.754;2022-08-23T04:05:23;0.88;;;0.60;;
19782;SDS011;10051;40.294;-3.754;2022-08-23T04:07:49;0.90;;;0.40;;
19782;SDS011;10051;40.294;-3.754;2022-08-23T04:10:15;2.00;;;0.50;;
19782;SDS011;10051;40.294;-3.754;2022-08-23T04:12:41;0.73;;;0.45;;
19782;SDS011;10051;40.294;-3.754;2022-08-23T04:15:07;0.60;;;0.50;;
19782;SDS011;10051;40.294;-3.754;2022-08-23T04:17:33;1.50;;;0.35;;
19782;SDS011;10051;40.294;-3.754;2022-08-23T04:19:59;2.00;;;0.47;;
19782;SDS011;10051;40.294;-3.754;2022-08-23T04:22:24;1.60;;;0.47;;
19782;SDS011;10051;40.294;-3.754;2022-08-23T04:24:50;1.20;;;0.50;;
19782;SDS011;10051;40.294;-3.754;2022-08-23T04:27:15;1.55;;;0.60;;
19782;SDS011;10051;40.294;-3.754;2022-08-23T04:29:41;2.03;;;0.60;;
19782;SDS011;10051;40.294;-3.754;2022-08-23T04:32:08;2.60;;;0.57;;
19782;SDS011;10051;40.294;-3.754;2022-08-23T04:34:35;2.47;;;0.50;;
19782;SDS011;10051;40.294;-3.754;2022-08-23T04:37:03;1.25;;;0.50;;
19782;SDS011;10051;40.294;-3.754;2022-08-23T04:39:29;1.65;;;0.40;;
19782;SDS011;10051;40.294;-3.754;2022-08-23T04:42:15;0.43;;;0.40;;
19782;SDS011;10051;40.294;-3.754;2022-08-23T04:44:43;1.60;;;0.60;;
19782;SDS011;10051;40.294;-3.754;2022-08-23T04:47:09;2.88;;;0.60;;
19782;SDS011;10051;40.294;-3.754;2022-08-23T04:49:34;1.08;;;0.60;;
19782;SDS011;10051;40.294;-3.754;2022-08-23T04:52:00;2.25;;;0.57;;
19782;SDS011;10051;40.294;-3.754;2022-08-23T04:54:25;2.15;;;0.50;;
19782;SDS011;10051;40.294;-3.754;2022-08-23T04:56:51;1.02;;;0.50;;
19782;SDS011;10051;40.294;-3.754;2022-08-23T04:59:16;0.63;;;0.60;;
19782;SDS011;10051;40.294;-3.754;2022-08-23T05:01:42;0.50;;;0.50;;
19782;SDS011;10051;40.294;-3.754;2022-08-23T05:04:07;1.13;;;0.50;;
19782;SDS011;10051;40.294;-3.754;2022-08-23T05:06:34;1.10;;;0.50;;
19782;SDS011;10051;40.294;-3.754;2022-08-23T05:08:59;2.47;;;0.55;;
19782;SDS011;10051;40.294;-3.754;2022-08-23T05:11:25;1.42;;;0.50;;
19782;SDS011;10051;40.294;-3.754;2022-08-23T05:13:53;1.27;;;0.45;;
19782;SDS011;10051;40.294;-3.754;2022-08-23T05:16:18;0.77;;;0.40;;
19782;SDS011;10051;40.294;-3.754;2022-08-23T05:18:44;3.92;;;0.55;;
19782;SDS011;10051;40.294;-3.754;2022-08-23T05:21:15;1.98;;;0.70;;
19782;SDS011;10051;40.294;-3.754;2022-08-23T05:23:42;1.13;;;0.52;;
19782;SDS011;10051;40.294;-3.754;2022-08-23T05:26:08;1.05;;;0.60;;
19782;SDS011;10051;40.294;-3.754;2022-08-23T05:28:34;1.95;;;0.60;;
19782;SDS011;10051;40.294;-3.754;2022-08-23T05:31:16;1.98;;;0.70;;
19782;SDS011;10051;40.294;-3.754;2022-08-23T05:33:47;1.25;;;0.60;;
19782;SDS011;10051;40.294;-3.754;2022-08-23T05:36:13;1.02;;;0.50;;
19782;SDS011;10051;40.294;-3.754;2022-08-23T05:38:42;2.58;;;0.60;;
19782;SDS011;10051;40.294;-3.754;2022-08-23T05:41:08;1.60;;;0.57;;
19782;SDS011;10051;40.294;-3.754;2022-08-23T05:43:34;2.90;;;0.60;;
19782;SDS011;10051;40.294;-3.754;2022-08-23T05:46:07;1.48;;;0.70;;
19782;SDS011;10051;40.294;-3.754;2022-08-23T05:48:36;1.27;;;0.70;;
19782;SDS011;10051;40.294;-3.754;2022-08-23T05:51:09;3.03;;;0.55;;
19782;SDS011;10051;40.294;-3.754;2022-08-23T05:53:37;3.60;;;0.80;;
19782;SDS011;10051;40.294;-3.754;2022-08-23T05:58:42;1.38;;;0.63;;
19782;SDS011;10051;40.294;-3.754;2022-08-23T06:01:08;4.88;;;0.68;;
19782;SDS011;10051;40.294;-3.754;2022-08-23T06:03:35;2.25;;;0.70;;
19782;SDS011;10051;40.294;-3.754;2022-08-23T06:06:01;2.25;;;0.68;;
19782;SDS011;10051;40.294;-3.754;2022-08-23T06:08:28;5.07;;;0.70;;
19782;SDS011;10051;40.294;-3.754;2022-08-23T06:10:58;3.63;;;0.75;;
19782;SDS011;10051;40.294;-3.754;2022-08-23T06:13:37;2.33;;;0.70;;
19782;SDS011;10051;40.294;-3.754;2022-08-23T06:16:05;1.92;;;0.50;;
19782;SDS011;10051;40.294;-3.754;2022-08-23T06:18:32;2.78;;;0.65;;
19782;SDS011;10051;40.294;-3.754;2022-08-23T06:21:07;4.88;;;0.70;;
19782;SDS011;10051;40.294;-3.754;2022-08-23T06:23:34;3.75;;;0.60;;
19782;SDS011;10051;40.294;-3.754;2022-08-23T06:26:08;1.90;;;0.55;;
19782;SDS011;10051;40.294;-3.754;2022-08-23T06:28:56;2.42;;;0.50;;
19782;SDS011;10051;40.294;-3.754;2022-08-23T06:31:24;3.85;;;0.70;;
19782;SDS011;10051;40.294;-3.754;2022-08-23T06:34:10;1.95;;;0.70;;
19782;SDS011;10051;40.294;-3.754;2022-08-23T06:36:38;2.55;;;0.73;;
19782;SDS011;10051;40.294;-3.754;2022-08-23T06:39:04;4.07;;;0.70;;
19782;SDS011;10051;40.294;-3.754;2022-08-23T06:41:31;2.25;;;0.60;;
19782;SDS011;10051;40.294;-3.754;2022-08-23T06:43:57;1.83;;;0.80;;
19782;SDS011;10051;40.294;-3.754;2022-08-23T06:46:23;3.70;;;0.65;;
19782;SDS011;10051;40.294;-3.754;2022-08-23T06:48:50;8.63;;;0.80;;
19782;SDS011;10051;40.294;-3.754;2022-08-23T06:53:48;5.50;;;0.90;;
19782;SDS011;10051;40.294;-3.754;2022-08-23T06:56:13;8.65;;;0.73;;
19782;SDS011;10051;40.294;-3.754;2022-08-23T06:58:39;4.07;;;0.70;;
19782;SDS011;10051;40.294;-3.754;2022-08-23T07:01:09;2.17;;;0.98;;
19782;SDS011;10051;40.294;-3.754;2022-08-23T07:03:55;2.05;;;0.80;;
19782;SDS011;10051;40.294;-3.754;2022-08-23T07:06:25;3.70;;;0.85;;
19782;SDS011;10051;40.294;-3.754;2022-08-23T07:08:52;2.85;;;0.80;;
19782;SDS011;10051;40.294;-3.754;2022-08-23T07:11:18;4.30;;;0.65;;
19782;SDS011;10051;40.294;-3.754;2022-08-23T07:13:45;2.53;;;0.90;;
19782;SDS011;10051;40.294;-3.754;2022-08-23T07:16:12;4.03;;;0.77;;
19782;SDS011;10051;40.294;-3.754;2022-08-23T07:18:39;5.50;;;0.90;;
19782;SDS011;10051;40.294;-3.754;2022-08-23T07:21:05;3.97;;;0.90;;
19782;SDS011;10051;40.294;-3.754;2022-08-23T07:23:32;3.67;;;1.08;;
19782;SDS011;10051;40.294;-3.754;2022-08-23T07:25:59;8.05;;;1.10;;
19782;SDS011;10051;40.294;-3.754;2022-08-23T07:28:26;2.33;;;0.70;;
19782;SDS011;10051;40.294;-3.754;2022-08-23T07:30:52;4.90;;;0.90;;
19782;SDS011;10051;40.294;-3.754;2022-08-23T07:33:19;3.70;;;0.90;;
19782;SDS011;10051;40.294;-3.754;2022-08-23T07:35:49;2.38;;;0.90;;
19782;SDS011;10051;40.294;-3.754;2022-08-23T07:38:16;4.53;;;1.00;;
19782;SDS011;10051;40.294;-3.754;2022-08-23T07:40:43;2.92;;;0.77;;
19782;SDS011;10051;40.294;-3.754;2022-08-23T07:43:09;3.55;;;1.05;;
19782;SDS011;10051;40.294;-3.754;2022-08-23T07:45:35;1.95;;;0.88;;
19782;SDS011;10051;40.294;-3.754;2022-08-23T07:48:03;6.07;;;1.15;;
19782;SDS011;10051;40.294;-3.754;2022-08-23T07:50:29;5.70;;;1.00;;
19782;SDS011;10051;40.294;-3.754;2022-08-23T07:52:54;4.88;;;1.00;;
19782;SDS011;10051;40.294;-3.754;2022-08-23T07:55:21;5.35;;;1.02;;
19782;SDS011;10051;40.294;-3.754;2022-08-23T07:57:46;6.95;;;1.23;;
19782;SDS011;10051;40.294;-3.754;2022-08-23T08:00:13;6.72;;;1.08;;
19782;SDS011;10051;40.294;-3.754;2022-08-23T08:02:39;7.63;;;0.95;;
19782;SDS011;10051;40.294;-3.754;2022-08-23T08:05:05;5.45;;;1.05;;
19782;SDS011;10051;40.294;-3.754;2022-08-23T08:07:31;5.18;;;1.10;;
19782;SDS011;10051;40.294;-3.754;2022-08-23T08:09:57;1.83;;;0.80;;
19782;SDS011;10051;40.294;-3.754;2022-08-23T08:12:23;6.82;;;1.20;;
19782;SDS011;10051;40.294;-3.754;2022-08-23T08:14:48;2.85;;;0.90;;
19782;SDS011;10051;40.294;-3.754;2022-08-23T08:17:15;4.53;;;1.20;;
19782;SDS011;10051;40.294;-3.754;2022-08-23T08:19:42;5.40;;;1.10;;
19782;SDS011;10051;40.294;-3.754;2022-08-23T08:22:09;9.68;;;1.20;;
19782;SDS011;10051;40.294;-3.754;2022-08-23T08:24:37;4.50;;;1.10;;
19782;SDS011;10051;40.294;-3.754;2022-08-23T08:27:03;3.13;;;1.17;;
19782;SDS011;10051;40.294;-3.754;2022-08-23T08:29:29;9.45;;;1.40;;
19782;SDS011;10051;40.294;-3.754;2022-08-23T08:31:55;6.07;;;1.20;;
19782;SDS011;10051;40.294;-3.754;2022-08-23T08:34:21;3.22;;;1.17;;
19782;SDS011;10051;40.294;-3.754;2022-08-23T08:36:47;5.20;;;1.30;;
19782;SDS011;10051;40.294;-3.754;2022-08-23T08:39:20;6.55;;;1.52;;
19782;SDS011;10051;40.294;-3.754;2022-08-23T08:50:27;4.00;;;1.20;;
19782;SDS011;10051;40.294;-3.754;2022-08-23T08:53:14;4.18;;;1.20;;
19782;SDS011;10051;40.294;-3.754;2022-08-23T08:55:56;5.47;;;1.50;;
19782;SDS011;10051;40.294;-3.754;2022-08-23T08:58:59;6.10;;;1.77;;
19782;SDS011;10051;40.294;-3.754;2022-08-23T09:01:24;4.40;;;1.60;;
19782;SDS011;10051;40.294;-3.754;2022-08-23T09:03:52;9.88;;;1.50;;
19782;SDS011;10051;40.294;-3.754;2022-08-23T09:06:27;5.85;;;1.67;;
19782;SDS011;10051;40.294;-3.754;2022-08-23T09:15:32;9.80;;;1.63;;
19782;SDS011;10051;40.294;-3.754;2022-08-23T09:17:42;5.50;;;1.48;;
19782;SDS011;10051;40.294;-3.754;2022-08-23T09:20:17;7.78;;;1.83;;
19782;SDS011;10051;40.294;-3.754;2022-08-23T09:22:47;7.05;;;1.60;;
19782;SDS011;10051;40.294;-3.754;2022-08-23T09:25:16;7.47;;;1.60;;
19782;SDS011;10051;40.294;-3.754;2022-08-23T09:27:42;5.07;;;1.75;;
19782;SDS011;10051;40.294;-3.754;2022-08-23T09:30:10;7.38;;;1.63;;
19782;SDS011;10051;40.294;-3.754;2022-08-23T09:32:39;7.93;;;1.75;;
19782;SDS011;10051;40.294;-3.754;2022-08-23T09:35:18;3.83;;;1.40;;
19782;SDS011;10051;40.294;-3.754;2022-08-23T09:40:30;7.35;;;1.30;;
19782;SDS011;10051;40.294;-3.754;2022-08-23T09:43:12;7.30;;;1.40;;
19782;SDS011;10051;40.294;-3.754;2022-08-23T09:45:51;11.98;;;1.75;;
19782;SDS011;10051;40.294;-3.754;2022-08-23T09:56:32;5.43;;;1.83;;
19782;SDS011;10051;40.294;-3.754;2022-08-23T09:59:00;7.03;;;1.70;;
19782;SDS011;10051;40.294;-3.754;2022-08-23T10:01:27;8.95;;;1.70;;
19782;SDS011;10051;40.294;-3.754;2022-08-23T10:06:34;10.27;;;1.75;;
19782;SDS011;10051;40.294;-3.754;2022-08-23T10:09:02;10.15;;;2.00;;
19782;SDS011;10051;40.294;-3.754;2022-08-23T10:11:42;6.93;;;1.88;;
19782;SDS011;10051;40.294;-3.754;2022-08-23T10:14:13;5.65;;;1.80;;
19782;SDS011;10051;40.294;-3.754;2022-08-23T10:22:47;14.32;;;2.10;;
19782;SDS011;10051;40.294;-3.754;2022-08-23T10:30:50;10.05;;;1.73;;
19782;SDS011;10051;40.294;-3.754;2022-08-23T10:36:22;8.20;;;1.95;;
19782;SDS011;10051;40.294;-3.754;2022-08-23T10:39:00;9.98;;;1.80;;
19782;SDS011;10051;40.294;-3.754;2022-08-23T10:47:12;7.05;;;1.70;;
19782;SDS011;10051;40.294;-3.754;2022-08-23T10:49:52;4.07;;;1.80;;
19782;SDS011;10051;40.294;-3.754;2022-08-23T10:52:37;6.75;;;1.90;;
19782;SDS011;10051;40.294;-3.754;2022-08-23T10:55:09;7.43;;;1.67;;
19782;SDS011;10051;40.294;-3.754;2022-08-23T10:58:04;3.42;;;1.70;;
19782;SDS011;10051;40.294;-3.754;2022-08-23T11:00:31;6.45;;;1.80;;
19782;SDS011;10051;40.294;-3.754;2022-08-23T11:09:05;7.70;;;1.85;;
19782;SDS011;10051;40.294;-3.754;2022-08-23T11:11:41;9.82;;;1.80;;
19782;SDS011;10051;40.294;-3.754;2022-08-23T11:14:10;3.13;;;1.60;;
19782;SDS011;10051;40.294;-3.754;2022-08-23T11:16:53;7.65;;;2.00;;
19782;SDS011;10051;40.294;-3.754;2022-08-23T11:19:46;6.10;;;1.73;;
19782;SDS011;10051;40.294;-3.754;2022-08-23T11:22:31;4.95;;;1.70;;
19782;SDS011;10051;40.294;-3.754;2022-08-23T11:27:40;7.30;;;1.77;;
19782;SDS011;10051;40.294;-3.754;2022-08-23T11:30:50;7.88;;;1.85;;
19782;SDS011;10051;40.294;-3.754;2022-08-23T11:32:58;4.97;;;1.70;;
19782;SDS011;10051;40.294;-3.754;2022-08-23T11:35:36;7.68;;;1.90;;
19782;SDS011;10051;40.294;-3.754;2022-08-23T11:38:02;7.68;;;1.77;;
19782;SDS011;10051;40.294;-3.754;2022-08-23T11:43:23;7.90;;;1.77;;
19782;SDS011;10051;40.294;-3.754;2022-08-23T12:03:08;5.10;;;1.80;;
19782;SDS011;10051;40.294;-3.754;2022-08-23T12:08:29;5.82;;;1.90;;
19782;SDS011;10051;40.294;-3.754;2022-08-23T12:11:18;6.47;;;1.88;;
19782;SDS011;10051;40.294;-3.754;2022-08-23T12:13:51;5.72;;;1.95;;
19782;SDS011;10051;40.294;-3.754;2022-08-23T12:21:30;8.20;;;1.70;;
19782;SDS011;10051;40.294;-3.754;2022-08-23T12:24:22;4.93;;;1.80;;
19782;SDS011;10051;40.294;-3.754;2022-08-23T12:26:57;2.33;;;1.30;;
19782;SDS011;10051;40.294;-3.754;2022-08-23T12:29:29;4.70;;;1.50;;
19782;SDS011;10051;40.294;-3.754;2022-08-23T12:32:10;4.60;;;1.33;;
19782;SDS011;10051;40.294;-3.754;2022-08-23T12:38:01;8.02;;;1.60;;
19782;SDS011;10051;40.294;-3.754;2022-08-23T12:40:39;6.13;;;1.30;;
19782;SDS011;10051;40.294;-3.754;2022-08-23T12:45:41;2.25;;;1.40;;
19782;SDS011;10051;40.294;-3.754;2022-08-23T12:48:13;8.00;;;1.50;;
19782;SDS011;10051;40.294;-3.754;2022-08-23T12:50:42;3.17;;;1.35;;
19782;SDS011;10051;40.294;-3.754;2022-08-23T12:53:10;3.85;;;1.30;;
19782;SDS011;10051;40.294;-3.754;2022-08-23T12:55:39;5.47;;;1.50;;
19782;SDS011;10051;40.294;-3.754;2022-08-23T12:58:10;4.10;;;1.50;;
19782;SDS011;10051;40.294;-3.754;2022-08-23T13:00:40;7.90;;;1.40;;
19782;SDS011;10051;40.294;-3.754;2022-08-23T13:03:26;6.72;;;1.42;;
19782;SDS011;10051;40.294;-3.754;2022-08-23T13:08:28;3.72;;;1.20;;
19782;SDS011;10051;40.294;-3.754;2022-08-23T13:11:07;3.90;;;1.08;;
19782;SDS011;10051;40.294;-3.754;2022-08-23T13:13:39;5.40;;;1.23;;
19782;SDS011;10051;40.294;-3.754;2022-08-23T13:16:23;5.85;;;1.20;;
19782;SDS011;10051;40.294;-3.754;2022-08-23T13:18:49;2.90;;;1.20;;
19782;SDS011;10051;40.294;-3.754;2022-08-23T13:23:55;2.25;;;1.00;;
19782;SDS011;10051;40.294;-3.754;2022-08-23T13:26:37;1.60;;;0.88;;
19782;SDS011;10051;40.294;-3.754;2022-08-23T13:29:08;3.13;;;0.80;;
19782;SDS011;10051;40.294;-3.754;2022-08-23T13:34:33;4.43;;;1.42;;
19782;SDS011;10051;40.294;-3.754;2022-08-23T13:39:58;4.80;;;1.40;;
19782;SDS011;10051;40.294;-3.754;2022-08-23T13:42:32;4.00;;;1.30;;
19782;SDS011;10051;40.294;-3.754;2022-08-23T13:45:34;6.68;;;1.20;;
19782;SDS011;10051;40.294;-3.754;2022-08-23T13:47:54;7.13;;;1.25;;
19782;SDS011;10051;40.294;-3.754;2022-08-23T13:50:24;3.58;;;1.00;;
19782;SDS011;10051;40.294;-3.754;2022-08-23T13:52:53;4.30;;;1.20;;
19782;SDS011;10051;40.294;-3.754;2022-08-23T13:55:18;2.88;;;1.27;;
19782;SDS011;10051;40.294;-3.754;2022-08-23T13:57:44;5.55;;;1.10;;
19782;SDS011;10051;40.294;-3.754;2022-08-23T14:00:10;5.35;;;1.30;;
19782;SDS011;10051;40.294;-3.754;2022-08-23T14:02:36;4.32;;;1.00;;
19782;SDS011;10051;40.294;-3.754;2022-08-23T14:05:03;1.77;;;1.20;;
19782;SDS011;10051;40.294;-3.754;2022-08-23T14:07:30;3.67;;;1.20;;
19782;SDS011;10051;40.294;-3.754;2022-08-23T14:09:55;4.45;;;1.10;;
19782;SDS011;10051;40.294;-3.754;2022-08-23T14:12:22;3.42;;;1.00;;
19782;SDS011;10051;40.294;-3.754;2022-08-23T14:14:51;1.30;;;1.00;;
19782;SDS011;10051;40.294;-3.754;2022-08-23T14:17:17;2.42;;;1.00;;
19782;SDS011;10051;40.294;-3.754;2022-08-23T14:19:43;4.18;;;1.10;;
19782;SDS011;10051;40.294;-3.754;2022-08-23T14:22:11;5.18;;;1.20;;
19782;SDS011;10051;40.294;-3.754;2022-08-23T14:24:37;3.58;;;1.20;;
19782;SDS011;10051;40.294;-3.754;2022-08-23T14:27:03;6.00;;;1.20;;
19782;SDS011;10051;40.294;-3.754;2022-08-23T14:29:29;3.30;;;1.20;;
19782;SDS011;10051;40.294;-3.754;2022-08-23T14:31:56;2.60;;;1.13;;
19782;SDS011;10051;40.294;-3.754;2022-08-23T14:34:23;7.70;;;1.20;;
19782;SDS011;10051;40.294;-3.754;2022-08-23T14:36:50;2.70;;;1.10;;
19782;SDS011;10051;40.294;-3.754;2022-08-23T14:39:17;5.28;;;1.30;;
19782;SDS011;10051;40.294;-3.754;2022-08-23T14:41:44;6.18;;;1.40;;
19782;SDS011;10051;40.294;-3.754;2022-08-23T14:44:09;3.90;;;1.25;;
19782;SDS011;10051;40.294;-3.754;2022-08-23T14:46:37;5.28;;;1.48;;
19782;SDS011;10051;40.294;-3.754;2022-08-23T14:49:03;3.50;;;1.20;;
19782;SDS011;10051;40.294;-3.754;2022-08-23T14:51:32;3.33;;;1.20;;
19782;SDS011;10051;40.294;-3.754;2022-08-23T14:54:00;6.30;;;1.42;;
19782;SDS011;10051;40.294;-3.754;2022-08-23T14:56:29;4.28;;;1.20;;
19782;SDS011;10051;40.294;-3.754;2022-08-23T14:58:55;7.57;;;1.40;;
19782;SDS011;10051;40.294;-3.754;2022-08-23T15:01:20;5.18;;;1.48;;
19782;SDS011;10051;40.294;-3.754;2022-08-23T15:03:46;3.67;;;1.40;;
19782;SDS011;10051;40.294;-3.754;2022-08-23T15:06:13;4.43;;;1.30;;
19782;SDS011;10051;40.294;-3.754;2022-08-23T15:08:40;3.50;;;1.30;;
19782;SDS011;10051;40.294;-3.754;2022-08-23T15:11:06;4.20;;;1.23;;
19782;SDS011;10051;40.294;-3.754;2022-08-23T15:13:33;3.47;;;1.40;;
19782;SDS011;10051;40.294;-3.754;2022-08-23T15:16:01;4.70;;;1.50;;
19782;SDS011;10051;40.294;-3.754;2022-08-23T15:18:28;4.78;;;1.40;;
19782;SDS011;10051;40.294;-3.754;2022-08-23T15:20:55;4.00;;;1.50;;
19782;SDS011;10051;40.294;-3.754;2022-08-23T15:23:21;6.70;;;1.60;;
19782;SDS011;10051;40.294;-3.754;2022-08-23T15:25:47;2.42;;;1.42;;
19782;SDS011;10051;40.294;-3.754;2022-08-23T15:28:13;3.50;;;1.42;;
19782;SDS011;10051;40.294;-3.754;2022-08-23T15:30:40;4.75;;;1.40;;
19782;SDS011;10051;40.294;-3.754;2022-08-23T15:33:06;2.28;;;1.40;;
19782;SDS011;10051;40.294;-3.754;2022-08-23T15:35:33;4.10;;;1.50;;
19782;SDS011;10051;40.294;-3.754;2022-08-23T15:38:03;2.60;;;1.45;;
19782;SDS011;10051;40.294;-3.754;2022-08-23T15:40:28;5.50;;;1.50;;
19782;SDS011;10051;40.294;-3.754;2022-08-23T15:42:54;4.60;;;1.38;;
19782;SDS011;10051;40.294;-3.754;2022-08-23T15:45:20;2.80;;;1.45;;
19782;SDS011;10051;40.294;-3.754;2022-08-23T15:50:16;4.57;;;1.50;;
19782;SDS011;10051;40.294;-3.754;2022-08-23T15:52:44;8.88;;;1.60;;
19782;SDS011;10051;40.294;-3.754;2022-08-23T15:55:09;2.95;;;1.50;;
19782;SDS011;10051;40.294;-3.754;2022-08-23T15:57:43;4.20;;;1.50;;
19782;SDS011;10051;40.294;-3.754;2022-08-23T16:00:11;2.45;;;1.27;;
19782;SDS011;10051;40.294;-3.754;2022-08-23T16:02:37;1.75;;;1.15;;
19782;SDS011;10051;40.294;-3.754;2022-08-23T16:05:04;4.30;;;1.30;;
19782;SDS011;10051;40.294;-3.754;2022-08-23T16:07:30;4.40;;;1.38;;
19782;SDS011;10051;40.294;-3.754;2022-08-23T16:09:57;7.68;;;1.50;;
19782;SDS011;10051;40.294;-3.754;2022-08-23T16:12:23;2.35;;;1.52;;
19782;SDS011;10051;40.294;-3.754;2022-08-23T16:14:50;3.75;;;1.20;;
19782;SDS011;10051;40.294;-3.754;2022-08-23T16:17:16;1.67;;;1.25;;
19782;SDS011;10051;40.294;-3.754;2022-08-23T16:19:43;5.80;;;1.40;;
19782;SDS011;10051;40.294;-3.754;2022-08-23T16:22:08;3.05;;;1.30;;
19782;SDS011;10051;40.294;-3.754;2022-08-23T16:24:34;3.22;;;1.30;;
19782;SDS011;10051;40.294;-3.754;2022-08-23T16:27:00;2.75;;;1.30;;
19782;SDS011;10051;40.294;-3.754;2022-08-23T16:29:25;3.85;;;1.20;;
19782;SDS011;10051;40.294;-3.754;2022-08-23T16:31:55;2.60;;;1.20;;
19782;SDS011;10051;40.294;-3.754;2022-08-23T16:34:21;3.97;;;1.40;;
19782;SDS011;10051;40.294;-3.754;2022-08-23T16:36:49;5.07;;;1.40;;
19782;SDS011;10051;40.294;-3.754;2022-08-23T16:39:19;7.63;;;1.38;;